Dobrodošli na spletni strani vremenske postaje Senovo. Vse informacije so informativnega značaja, saj vremenska postaja ni del državne mreže meteoroloških postaj. AKTUALNIH OBVESTIL NI.


Sneg/Led Od: 21-02-2018 00:00 Do: 23-02-2018 23:59 Opozorilo za: Sneg/Led Stopnja: Rumena info button
Veter Od: 21-02-2018 00:00 Do: 22-02-2018 23:59 Opozorilo za: Veter Stopnja: Rumena info button

Pogled proti Armezu več informacij Pogled proti Armezu


Lisca več informacij Lisca


Radar strel več informacij blitzortung!


opozorilo za sneg/led več informacij rain snow radar


Obiščite še:

Template documentation
and downloads

And another site



Weather Underground, zgodovina - Tekstovno

Dnevni povzetek za Oktober 10, 2017 Enote:  Metrično    Angleško   Obe
« Predhodni Dan
Naslednji Dan »
Dnevni Tedenski Mesečni Letni Po meri
  Višja: Nižja: Povprečje:
Temperatura: -17.8 °C -17.8 °C -11.5 °C
Točka rosišča: -17.8 °C -13.9 °C -12.3 °C
Vlažnost: Humidity % 0 % 90 %
Hitrost vetra: 0 km/h 0 km/h 1.9 km/h
Sunki vetra: 0 km/h - -
Veter:- - South
Zračni tlak: 0 hPa 0 hPa -
Padavine: 251.46 mm    
Historical Graphs
 
 
Tabelarni podarki za Oktober 10, 2017
Čas Temperatura Točka rosišča Zračni tlak Veter Hitrost vetra Sunki vetra Vlažnost Intenziteta padavin (urna)
-17.8 °C -17.8 °C 0 hPa Calm     Humidity % 0 mm
00:07 -11.9 °C -12.6 °C 34496.6 hPa NW 0.8 km/h 6.4 km/h 93 % 0 mm
00:12 -11.9 °C -12.6 °C 34496.6 hPa NW 0.3 km/h 4.2 km/h 93 % 0 mm
00:17 -11.9 °C -12.6 °C 34496.6 hPa NW 0.3 km/h 4.2 km/h 93 % 0 mm
00:22 -11.9 °C -12.6 °C 34496.6 hPa Calm     93 % 0 mm
00:27 -11.9 °C -12.6 °C 34496.6 hPa Calm     93 % 0 mm
00:32 -11.9 °C -12.6 °C 34496.6 hPa Calm     93 % 0 mm
00:37 -11.9 °C -12.6 °C 34496.6 hPa Calm     93 % 0 mm
00:42 -11.9 °C -12.6 °C 34476.3 hPa Calm     93 % 0 mm
00:47 -11.9 °C -12.6 °C 34476.3 hPa Calm     93 % 0 mm
00:52 -11.9 °C -12.6 °C 34476.3 hPa Calm     93 % 0 mm
00:57 -11.9 °C -12.6 °C 34476.3 hPa Calm     93 % 0 mm
01:02 -12 °C -12.6 °C 34476.3 hPa Calm     93 % 0 mm
01:07 -12 °C -12.6 °C 34476.3 hPa Calm     93 % 0 mm
01:12 -12 °C -12.6 °C 34476.3 hPa Calm     93 % 0 mm
01:17 -12 °C -12.6 °C 34476.3 hPa Calm     93 % 0 mm
01:22 -12 °C -12.6 °C 34476.3 hPa Calm     93 % 0 mm
01:27 -12 °C -12.6 °C 34476.3 hPa Calm     93 % 0 mm
01:32 -12 °C -12.6 °C 34476.3 hPa Calm     93 % 0 mm
01:37 -11.9 °C -12.6 °C 34476.3 hPa Calm     93 % 0 mm
01:42 -11.9 °C -12.6 °C 34476.3 hPa Calm     93 % 0 mm
01:47 -11.9 °C -12.6 °C 34476.3 hPa Calm     93 % 0 mm
01:52 -11.9 °C -12.6 °C 34476.3 hPa Calm     93 % 0 mm
01:57 -11.9 °C -12.6 °C 34496.6 hPa Calm     93 % 0 mm
02:02 -11.9 °C -12.6 °C 34496.6 hPa Calm     93 % 7.62 mm
02:07 -11.9 °C -12.6 °C 34496.6 hPa WSW 0.3 km/h 6.9 km/h 93 % 7.62 mm
02:12 -12 °C -12.5 °C 34533.8 hPa WSW 4.2 km/h 9.3 km/h 94 % 12.7 mm
02:17 -12 °C -12.5 °C 34533.8 hPa SSW 6.8 km/h 9.8 km/h 94 % 25.4 mm
02:22 -12 °C -12.5 °C 34533.8 hPa ESE 6.9 km/h 14 km/h 94 % 76.2 mm
02:27 -12 °C -12.5 °C 34476.3 hPa East 5.6 km/h 14 km/h 94 % 83.82 mm
02:32 -12 °C -12.5 °C 34476.3 hPa ENE 2.1 km/h 8 km/h 94 % 91.44 mm
02:37 -12 °C -12.5 °C 34476.3 hPa East 1 km/h 6.4 km/h 94 % 91.44 mm
02:42 -12 °C -12.5 °C 34476.3 hPa Calm   4.2 km/h 94 % 91.44 mm
02:47 -12 °C -12.5 °C 34476.3 hPa Calm     94 % 96.52 mm
02:52 -12 °C -12.5 °C 34476.3 hPa Calm   3.4 km/h 94 % 96.52 mm
02:57 -12 °C -12.5 °C 34476.3 hPa NE 0.3 km/h 3.4 km/h 94 % 96.52 mm
03:02 -12 °C -12.5 °C 34476.3 hPa ENE 1.3 km/h 8.9 km/h 94 % 91.44 mm
03:07 -12 °C -12.5 °C 34476.3 hPa ENE 2.9 km/h 8.9 km/h 94 % 83.82 mm
03:12 -12 °C -12.5 °C 34476.3 hPa ENE 2.1 km/h 6.9 km/h 94 % 83.82 mm
03:22 -12 °C -12.5 °C 34476.3 hPa SW 0.3 km/h 5.1 km/h 94 % 25.4 mm
03:27 -12 °C -12.5 °C 34496.6 hPa Calm     94 % 25.4 mm
03:32 -12 °C -12.5 °C 34496.6 hPa Calm     94 % 20.32 mm
03:37 -12 °C -12.5 °C 34496.6 hPa Calm     94 % 20.32 mm
03:42 -12 °C -12.5 °C 34476.3 hPa Calm     94 % 25.4 mm
03:47 -12 °C -12.5 °C 34476.3 hPa Calm     94 % 25.4 mm
03:52 -12 °C -12.5 °C 34476.3 hPa Calm     94 % 25.4 mm
03:57 -12 °C -12.5 °C 34476.3 hPa Calm     94 % 25.4 mm
04:02 -12 °C -12.5 °C 34476.3 hPa Calm     94 % 33.02 mm
04:04 -12 °C -12.5 °C 34476.3 hPa Calm     94 % 33.02 mm
04:09 -12 °C -12.5 °C 34476.3 hPa Calm     94 % 33.02 mm
04:14 -12 °C -12.5 °C 34476.3 hPa SSE 1 km/h 6.4 km/h 94 % 38.1 mm
04:19 -12 °C -12.5 °C 34476.3 hPa SSE 1.8 km/h 6.4 km/h 94 % 33.02 mm
04:24 -12 °C -12.5 °C 34476.3 hPa SSE 0.5 km/h 3.4 km/h 94 % 25.4 mm
04:29 -12 °C -12.5 °C 34476.3 hPa Calm     94 % 25.4 mm
04:34 -12 °C -12.5 °C 34476.3 hPa Calm     94 % 25.4 mm
04:39 -12 °C -12.5 °C 34476.3 hPa West 0.3 km/h 6.9 km/h 94 % 20.32 mm
04:44 -12 °C -12.5 °C 34476.3 hPa West 2.9 km/h 6.9 km/h 94 % 20.32 mm
04:49 -12 °C -12.5 °C 34476.3 hPa West 2.9 km/h 6.9 km/h 94 % 20.32 mm
04:54 -12 °C -12.5 °C 34476.3 hPa WSW 0.3 km/h 5.6 km/h 94 % 12.7 mm
04:59 -12 °C -12.5 °C 34476.3 hPa SW 1.8 km/h 6.9 km/h 94 % 7.62 mm
05:04 -12 °C -12.5 °C 34476.3 hPa SW 3.1 km/h 7.6 km/h 94 % 7.62 mm
05:09 -12 °C -12.5 °C 34476.3 hPa WSW 2.3 km/h 7.6 km/h 94 % 7.62 mm
05:16 -12 °C -12.5 °C 34476.3 hPa SW 1 km/h 5.1 km/h 94 % 0 mm
05:20 -12 °C -12.5 °C 34476.3 hPa North 0.3 km/h   94 % 0 mm
05:22 -12 °C -12.5 °C 34476.3 hPa Calm     94 % 0 mm
05:32 -12 °C -12.5 °C 34496.6 hPa Calm     94 % 0 mm
05:37 -12 °C -12.5 °C 34496.6 hPa Calm     94 % 0 mm
05:42 -12 °C -12.5 °C 34496.6 hPa Calm     94 % 0 mm
05:47 -12 °C -12.5 °C 34496.6 hPa Calm     94 % 0 mm
05:52 -12 °C -12.5 °C 34496.6 hPa Calm     94 % 0 mm
05:57 -12 °C -12.5 °C 34496.6 hPa Calm     94 % 0 mm
06:02 -12 °C -12.5 °C 34496.6 hPa Calm     94 % 0 mm
06:07 -12 °C -12.5 °C 34496.6 hPa Calm     94 % 0 mm
06:12 -12.4 °C -12.8 °C 34496.6 hPa Calm     96 % 0 mm
06:17 -12.4 °C -12.8 °C 34496.6 hPa Calm     96 % 0 mm
06:22 -12.4 °C -12.8 °C 34496.6 hPa Calm     96 % 0 mm
06:27 -7.5 °C -8.8 °C 34476.3 hPa Calm     86 % 0 mm
06:33 -17.8 °C -8.8 °C 0 hPa Calm     0 % 0 mm
06:38 -10.2 °C -13.3 °C 34476.3 hPa Calm     69 % 0 mm
06:43 -10.6 °C -13.4 °C 34476.3 hPa Calm     71 % 0 mm
06:48 -11.1 °C -13.7 °C 34476.3 hPa Calm     73 % 0 mm
06:53 -11.3 °C -13.7 °C 34496.6 hPa SW 5.5 km/h 10.3 km/h 75 % 7.62 mm
06:58 -11.6 °C -13.6 °C 34496.6 hPa SW 3.4 km/h 8.9 km/h 78 % 33.02 mm
07:08 -11.8 °C -13.6 °C 34496.6 hPa WSW 2.6 km/h 8.9 km/h 81 % 63.5 mm
07:13 -12 °C -13.6 °C 34496.6 hPa West 2.1 km/h 8.9 km/h 83 % 76.2 mm
07:18 -12.1 °C -13.5 °C 34496.6 hPa North 1.6 km/h 7.6 km/h 84 % 83.82 mm
07:23 -12.2 °C -13.5 °C 34496.6 hPa East 2.6 km/h 7.6 km/h 85 % 91.44 mm
07:29 -12.2 °C -13.5 °C 34496.6 hPa SE 2.6 km/h 7.6 km/h 85 % 91.44 mm
07:34 -12.2 °C -13.4 °C 34496.6 hPa SSW 2.6 km/h 6.9 km/h 86 % 96.52 mm
07:39 -12.3 °C -13.4 °C 34533.8 hPa West 1.6 km/h 6.9 km/h 87 % 96.52 mm
07:44 -12.3 °C -13.3 °C 34533.8 hPa WNW 0.5 km/h 6.4 km/h 88 % 96.52 mm
07:49 -12.3 °C -13.3 °C 34533.8 hPa Calm     89 % 96.52 mm
07:54 -12.3 °C -13.2 °C 34533.8 hPa Calm     90 % 63.5 mm
07:59 -12.3 °C -13.1 °C 34533.8 hPa ESE 0.3 km/h 6.4 km/h 91 % 63.5 mm
08:04 -12.3 °C -13.1 °C 34533.8 hPa ESE 0.5 km/h 6.4 km/h 91 % 45.72 mm
08:09 -12.3 °C -13 °C 34533.8 hPa North 0.3 km/h   92 % 38.1 mm
08:14 -12.3 °C -13 °C 34533.8 hPa NW 0.3 km/h 3.4 km/h 92 % 25.4 mm
08:19 -12.3 °C -12.9 °C 34533.8 hPa SW 1.3 km/h 7.6 km/h 92 % 20.32 mm
08:24 -12.3 °C -12.9 °C 34533.8 hPa SSW 1 km/h 7.6 km/h 93 % 12.7 mm
08:29 -12.3 °C -12.9 °C 34533.8 hPa NNE 0.8 km/h 5.6 km/h 93 % 12.7 mm
08:34 -12.3 °C -12.9 °C 34533.8 hPa West 2.6 km/h 6.4 km/h 93 % 12.7 mm
08:39 -12.3 °C -12.9 °C 34567.7 hPa WSW 1.8 km/h 6.4 km/h 93 % 12.7 mm
08:43 -12.3 °C -12.8 °C 34567.7 hPa Calm   7.6 km/h 94 % 12.7 mm
08:48 -12.3 °C -12.8 °C 34567.7 hPa SSE 1.6 km/h 7.6 km/h 94 % 12.7 mm
08:53 -12.3 °C -12.8 °C 34533.8 hPa SSE 1.8 km/h 6.9 km/h 94 % 12.7 mm
08:58 -12.3 °C -12.8 °C 34533.8 hPa SSE 0.3 km/h 6.4 km/h 94 % 12.7 mm
09:03 -12.3 °C -12.7 °C 34533.8 hPa Calm     95 % 12.7 mm
09:09 -12.3 °C -12.7 °C 34533.8 hPa WSW 0.8 km/h 5.1 km/h 95 % 7.62 mm
09:14 -12.2 °C -12.7 °C 34533.8 hPa West 1.6 km/h 6.4 km/h 94 % 7.62 mm
09:18 -12.2 °C -12.7 °C 34533.8 hPa WNW 0.8 km/h 6.4 km/h 94 % 7.62 mm
09:23 -12.2 °C -12.7 °C 34496.6 hPa Calm   4.2 km/h 95 % 12.7 mm
09:29 -12.2 °C -12.6 °C 34496.6 hPa Calm   2.3 km/h 95 % 12.7 mm
09:34 -12.2 °C -12.6 °C 34496.6 hPa ESE 0.5 km/h 5.6 km/h 95 % 12.7 mm
09:39 -12.1 °C -12.6 °C 34533.8 hPa ESE 0.5 km/h 5.6 km/h 95 % 12.7 mm
09:44 -12.1 °C -12.6 °C 34533.8 hPa Calm     95 % 7.62 mm
09:49 -12.1 °C -12.6 °C 34533.8 hPa Calm     95 % 7.62 mm
09:54 -12.1 °C -12.6 °C 34533.8 hPa Calm   3.4 km/h 95 % 7.62 mm
09:59 -12.1 °C -12.4 °C 34533.8 hPa SSW 0.3 km/h 4.2 km/h 95 % 7.62 mm
10:04 -12.1 °C -12.4 °C 34533.8 hPa SW 0.3 km/h 4.2 km/h 95 % 7.62 mm
10:09 -12.1 °C -12.4 °C 34533.8 hPa Calm     95 % 7.62 mm
10:14 -12 °C -12.3 °C 34533.8 hPa South 0.5 km/h 6.4 km/h 96 % 7.62 mm
10:19 -11.9 °C -12.3 °C 34533.8 hPa SSE 0.8 km/h 6.4 km/h 96 % 7.62 mm
10:24 -11.9 °C -12.3 °C 34533.8 hPa SE 1.8 km/h 5.6 km/h 96 % 0 mm
10:29 -11.9 °C -12.2 °C 34533.8 hPa SE 2.3 km/h 5.6 km/h 96 % 0 mm
10:31 -11.9 °C -12.2 °C 34533.8 hPa SE 1.6 km/h 5.6 km/h 96 % 0 mm
10:36 -11.8 °C -12.2 °C 34533.8 hPa South 1.6 km/h 5.1 km/h 96 % 0 mm
10:41 -11.8 °C -12.2 °C 34533.8 hPa SSW 1 km/h 5.1 km/h 96 % 0 mm
10:51 -11.7 °C -12.1 °C 34533.8 hPa SW 0.3 km/h 3.4 km/h 96 % 0 mm
10:56 -11.7 °C -12.1 °C 34533.8 hPa Calm     96 % 0 mm
11:01 -11.7 °C -12.1 °C 34533.8 hPa SSW 0.8 km/h 5.1 km/h 95 % 0 mm
11:06 -11.6 °C -12.1 °C 34533.8 hPa SSW 1.6 km/h 5.1 km/h 95 % 0 mm
11:11 -11.6 °C -12.1 °C 34533.8 hPa SSW 2.1 km/h 6.9 km/h 95 % 0 mm
11:16 -11.6 °C -12 °C 34533.8 hPa SSW 1.3 km/h 6.9 km/h 95 % 0 mm
11:21 -11.6 °C -12 °C 34533.8 hPa South 0.3 km/h 5.6 km/h 95 % 0 mm
11:26 -11.5 °C -11.9 °C 34567.7 hPa SE 2.3 km/h 8 km/h 95 % 0 mm
11:31 -11.4 °C -11.9 °C 34567.7 hPa SE 3.9 km/h 8 km/h 95 % 0 mm
11:36 -11.4 °C -11.9 °C 34567.7 hPa SE 3.9 km/h 6.4 km/h 95 % 0 mm
11:41 -11.4 °C -11.8 °C 34533.8 hPa SE 2.3 km/h 6.4 km/h 95 % 0 mm
11:46 -11.3 °C -11.8 °C 34533.8 hPa SSE 2.3 km/h 6.9 km/h 95 % 0 mm
11:51 -11.3 °C -11.7 °C 34533.8 hPa SSE 3.7 km/h 6.9 km/h 95 % 0 mm
11:56 -11.3 °C -11.7 °C 34533.8 hPa SSE 2.9 km/h 6.4 km/h 95 % 0 mm
12:01 -11.3 °C -11.7 °C 34533.8 hPa ESE 1.8 km/h 6.9 km/h 95 % 0 mm
12:06 -11.3 °C -11.7 °C 34533.8 hPa SE 2.3 km/h 6.9 km/h 95 % 0 mm
12:11 -11.3 °C -11.7 °C 34533.8 hPa SSE 1.3 km/h 6.4 km/h 95 % 0 mm
12:16 -11.3 °C -11.7 °C 34533.8 hPa Calm   2.9 km/h 95 % 0 mm
12:26 -11.1 °C -11.5 °C 34533.8 hPa Calm     95 % 0 mm
12:41 -10.9 °C -11.3 °C 34533.8 hPa ENE 0.3 km/h 5.1 km/h 95 % 0 mm
12:46 -10.8 °C -11.3 °C 34533.8 hPa Calm   2.9 km/h 95 % 0 mm
12:51 -10.8 °C -11.3 °C 34533.8 hPa ESE 1 km/h 5.6 km/h 94 % 0 mm
12:56 -10.8 °C -11.3 °C 34533.8 hPa ESE 1.6 km/h 5.6 km/h 94 % 0 mm
13:01 -10.6 °C -11.2 °C 34533.8 hPa SE 2.3 km/h 10.3 km/h 94 % 0 mm
13:06 -10.5 °C -11 °C 34533.8 hPa SE 5 km/h 10.3 km/h 94 % 0 mm
13:11 -10.3 °C -10.9 °C 34533.8 hPa SE 6.3 km/h 9.8 km/h 94 % 0 mm
13:16 -10.1 °C -10.7 °C 34533.8 hPa SE 4.2 km/h 9.3 km/h 94 % 0 mm
13:21 -10.1 °C -10.6 °C 34533.8 hPa ESE 3.7 km/h 8 km/h 94 % 0 mm
13:26 -10.1 °C -10.7 °C 34533.8 hPa ESE 3.7 km/h 8 km/h 93 % 0 mm
13:31 -10 °C -10.7 °C 34533.8 hPa SE 1.6 km/h 6.9 km/h 92 % 0 mm
13:36 -9.9 °C -10.6 °C 34533.8 hPa ESE 0.8 km/h 2.3 km/h 92 % 0 mm
13:41 -9.7 °C -10.4 °C 34533.8 hPa ESE 0.3 km/h 6.9 km/h 92 % 0 mm
13:46 -9.5 °C -10.2 °C 34533.8 hPa ESE 2.3 km/h 6.9 km/h 92 % 0 mm
13:51 -9.4 °C -10.2 °C 34533.8 hPa SE 3.7 km/h 11.1 km/h 91 % 0 mm
13:56 -9.1 °C -9.9 °C 34496.6 hPa SE 5.1 km/h 11.1 km/h 91 % 0 mm
14:01 -9.1 °C -9.9 °C 34496.6 hPa SE 6 km/h 9.3 km/h 90 % 0 mm
14:06 -8.9 °C -9.9 °C 34496.6 hPa SE 6.9 km/h 12.7 km/h 89 % 0 mm
14:11 -8.9 °C -10.1 °C 34533.8 hPa ESE 8.9 km/h 18.7 km/h 88 % 0 mm
14:16 -8.9 °C -10.2 °C 34533.8 hPa SE 8.5 km/h 18.7 km/h 87 % 0 mm
14:21 -8.9 °C -10.2 °C 34533.8 hPa SE 7.7 km/h 11.1 km/h 86 % 0 mm
14:26 -9 °C -10.6 °C 34533.8 hPa ESE 6.9 km/h 12.7 km/h 83 % 0 mm
14:31 -9 °C -10.6 °C 34533.8 hPa SE 6.9 km/h 12.7 km/h 83 % 0 mm
14:36 -8.9 °C -10.7 °C 34533.8 hPa SSE 6.9 km/h 14.5 km/h 82 % 0 mm
14:41 -9 °C -10.7 °C 34533.8 hPa SSW 7.2 km/h 14.5 km/h 82 % 0 mm
14:46 -8.9 °C -10.7 °C 34533.8 hPa SSW 7.6 km/h 14.5 km/h 82 % 0 mm
14:51 -8.9 °C -10.7 °C 34533.8 hPa SSE 7.2 km/h 14 km/h 82 % 0 mm
14:56 -8.9 °C -10.7 °C 34567.7 hPa SE 7.2 km/h 14 km/h 81 % 0 mm
15:01 -8.9 °C -10.7 °C 34567.7 hPa ESE 7.7 km/h 12.7 km/h 81 % 0 mm
15:06 -8.9 °C -10.8 °C 34567.7 hPa SE 7.6 km/h 18.7 km/h 80 % 0 mm
15:11 -8.8 °C -10.7 °C 34533.8 hPa SSE 7.7 km/h 18.7 km/h 80 % 0 mm
15:16 -8.8 °C -10.7 °C 34533.8 hPa SE 8.9 km/h 15 km/h 80 % 0 mm
15:21 -8.9 °C -10.8 °C 34533.8 hPa SE 8 km/h 14 km/h 80 % 0 mm
15:26 -8.9 °C -10.9 °C 34533.8 hPa SSE 7.6 km/h 14 km/h 79 % 0 mm
15:32 -8.9 °C -10.9 °C 34533.8 hPa South 7.7 km/h 11.1 km/h 79 % 0 mm
15:37 -8.9 °C -10.9 °C 34533.8 hPa South 7.2 km/h 11.1 km/h 79 % 0 mm
15:42 -8.9 °C -10.9 °C 34533.8 hPa SSE 6.8 km/h 11.1 km/h 79 % 0 mm
15:47 -8.9 °C -10.9 °C 34533.8 hPa SSE 6.4 km/h 10.3 km/h 79 % 0 mm
15:52 -8.9 °C -10.9 °C 34533.8 hPa SSE 6.8 km/h 9.8 km/h 79 % 0 mm
15:57 -8.8 °C -10.9 °C 34533.8 hPa SSE 6.8 km/h 11.1 km/h 79 % 0 mm
16:01 -8.8 °C -10.9 °C 34533.8 hPa SSE 6.3 km/h 11.1 km/h 79 % 0 mm
16:06 -8.8 °C -10.9 °C 34533.8 hPa SSE 6.3 km/h 10.3 km/h 79 % 0 mm
16:11 -8.8 °C -10.8 °C 34533.8 hPa SSE 5.6 km/h 12.7 km/h 79 % 0 mm
16:16 -8.8 °C -10.9 °C 34533.8 hPa South 6.3 km/h 12.7 km/h 78 % 0 mm
16:21 -8.7 °C -10.9 °C 34533.8 hPa South 6.4 km/h 11.6 km/h 78 % 0 mm
16:26 -8.8 °C -11 °C 34533.8 hPa South 6.4 km/h 10.3 km/h 77 % 0 mm
16:31 -8.8 °C -11.1 °C 34533.8 hPa South 6.3 km/h 10.3 km/h 77 % 0 mm
16:36 -9 °C -11.2 °C 34533.8 hPa South 5.1 km/h 9.8 km/h 77 % 0 mm
16:41 -9.1 °C -11.3 °C 34496.6 hPa SSE 5.1 km/h 9.8 km/h 77 % 0 mm
16:46 -9.1 °C -11.3 °C 34496.6 hPa SSE 5.5 km/h 10.3 km/h 77 % 0 mm
16:51 -9.3 °C -11.5 °C 34496.6 hPa South 5.5 km/h 10.3 km/h 77 % 0 mm
16:56 -9.3 °C -11.6 °C 34533.8 hPa South 5.5 km/h 8.9 km/h 77 % 0 mm
17:01 -9.4 °C -11.5 °C 34533.8 hPa SSW 5 km/h 8.9 km/h 78 % 0 mm
17:06 -9.6 °C -11.6 °C 34533.8 hPa South 5.1 km/h 9.3 km/h 79 % 0 mm
17:11 -9.6 °C -11.4 °C 34533.8 hPa South 6.3 km/h 12.2 km/h 80 % 0 mm
17:16 -9.6 °C -11.4 °C 34533.8 hPa South 6.3 km/h 12.2 km/h 80 % 0 mm
17:21 -9.6 °C -11.5 °C 34533.8 hPa SSW 4.2 km/h 12.2 km/h 80 % 0 mm
17:26 -9.7 °C -11.5 °C 34533.8 hPa SSW 1 km/h 6.9 km/h 81 % 0 mm
17:31 -9.9 °C -11.6 °C 34533.8 hPa WNW 0.8 km/h 8.9 km/h 82 % 0 mm
17:36 -9.9 °C -11.6 °C 34533.8 hPa West 2.1 km/h 9.8 km/h 82 % 0 mm
17:41 -10 °C -11.6 °C 34533.8 hPa WSW 3.7 km/h 9.8 km/h 83 % 0 mm
17:46 -10.1 °C -11.6 °C 34533.8 hPa WSW 4.7 km/h 8.9 km/h 84 % 0 mm
17:51 -10.2 °C -11.6 °C 34533.8 hPa WSW 5.5 km/h 9.3 km/h 84 % 0 mm
17:56 -10.2 °C -11.7 °C 34567.7 hPa WSW 5.5 km/h 9.8 km/h 84 % 0 mm
18:01 -10.3 °C -11.7 °C 34567.7 hPa WSW 5 km/h 9.8 km/h 85 % 0 mm
18:06 -10.4 °C -11.8 °C 34567.7 hPa NW 2.3 km/h 8 km/h 85 % 0 mm
18:11 -10.4 °C -11.8 °C 34533.8 hPa NW 1 km/h 8.9 km/h 85 % 0 mm
18:16 -10.6 °C -11.8 °C 34533.8 hPa NW 3.9 km/h 8.9 km/h 86 % 0 mm
18:21 -10.7 °C -11.8 °C 34533.8 hPa NW 5.1 km/h 8.9 km/h 87 % 0 mm
18:26 -10.8 °C -11.9 °C 34496.6 hPa NNW 4.2 km/h 9.8 km/h 87 % 0 mm
18:31 -10.8 °C -11.9 °C 34496.6 hPa NNW 3.1 km/h 9.8 km/h 88 % 0 mm
18:36 -10.9 °C -12 °C 34496.6 hPa NNW 1.8 km/h 9.3 km/h 88 % 0 mm
18:41 -11.1 °C -12.1 °C 34533.8 hPa NNW 3.7 km/h 11.1 km/h 88 % 0 mm
18:46 -11.1 °C -12.1 °C 34533.8 hPa NNW 4.2 km/h 11.1 km/h 89 % 0 mm
18:51 -11.2 °C -12.1 °C 34533.8 hPa NNW 2.3 km/h 5.6 km/h 89 % 0 mm
18:56 -11.2 °C -12.1 °C 34496.6 hPa NNW 0.3 km/h 4.2 km/h 90 % 0 mm
19:01 -11.3 °C -12.2 °C 34496.6 hPa North 0.3 km/h   90 % 0 mm
19:06 -11.3 °C -12.2 °C 34496.6 hPa Calm     90 % 0 mm
19:11 -11.4 °C -12.2 °C 34533.8 hPa Calm     91 % 0 mm
19:21 -11.6 °C -12.3 °C 34533.8 hPa Calm     91 % 0 mm
19:31 -11.7 °C -12.4 °C 34533.8 hPa Calm     91 % 0 mm
19:36 -11.7 °C -12.4 °C 34533.8 hPa Calm     92 % 0 mm
19:41 -11.8 °C -12.4 °C 34533.8 hPa Calm     92 % 0 mm
19:46 -11.8 °C -12.6 °C 34533.8 hPa Calm     92 % 0 mm
19:51 -11.9 °C -12.6 °C 34533.8 hPa NNW 1.3 km/h 5.1 km/h 92 % 0 mm
19:56 -11.9 °C -12.6 °C 34567.7 hPa NNW 1.6 km/h 5.1 km/h 92 % 0 mm
20:06 -12.1 °C -12.7 °C 34567.7 hPa Calm     93 % 0 mm
20:11 -12.1 °C -12.7 °C 34567.7 hPa Calm     93 % 0 mm
20:16 -12.2 °C -12.8 °C 34567.7 hPa Calm     93 % 0 mm
20:21 -12.2 °C -12.8 °C 34567.7 hPa Calm     93 % 0 mm
20:26 -12.3 °C -12.9 °C 34567.7 hPa Calm     93 % 0 mm
20:27 -12.3 °C -12.9 °C 34567.7 hPa Calm     93 % 0 mm
20:32 -12.3 °C -12.9 °C 34567.7 hPa Calm     93 % 0 mm
20:37 -12.4 °C -12.9 °C 34567.7 hPa Calm     94 % 0 mm
20:42 -12.4 °C -12.9 °C 34567.7 hPa NNW 0.8 km/h 4.2 km/h 94 % 0 mm
20:47 -12.4 °C -12.9 °C 34567.7 hPa NNW 0.8 km/h 4.2 km/h 94 % 0 mm
20:52 -12.6 °C -13.1 °C 34567.7 hPa Calm     94 % 0 mm
20:57 -12.6 °C -13.1 °C 34567.7 hPa Calm     94 % 0 mm
21:02 -12.6 °C -13.1 °C 34567.7 hPa Calm     94 % 0 mm
21:07 -12.7 °C -13.2 °C 34567.7 hPa Calm     94 % 0 mm
21:12 -12.7 °C -13.2 °C 34601.5 hPa Calm     94 % 0 mm
21:17 -12.8 °C -13.3 °C 34601.5 hPa Calm     94 % 0 mm
21:22 -12.8 °C -13.3 °C 34601.5 hPa Calm     94 % 0 mm
21:27 -12.9 °C -13.3 °C 34567.7 hPa Calm     95 % 0 mm
21:33 -12.9 °C -13.3 °C 34567.7 hPa Calm     95 % 0 mm
21:38 -12.9 °C -13.4 °C 34567.7 hPa Calm     95 % 0 mm
21:43 -12.9 °C -13.4 °C 34601.5 hPa Calm     95 % 0 mm
21:48 -12.9 °C -13.4 °C 34601.5 hPa Calm     95 % 0 mm
21:53 -13.1 °C -13.5 °C 34601.5 hPa Calm     95 % 0 mm
21:58 -13.2 °C -13.6 °C 34601.5 hPa Calm     95 % 0 mm
22:03 -13.2 °C -13.6 °C 34601.5 hPa Calm     95 % 0 mm
22:13 -13.2 °C -13.7 °C 34601.5 hPa Calm     95 % 0 mm
22:18 -13.3 °C -13.7 °C 34601.5 hPa Calm     95 % 0 mm
22:23 -13.3 °C -13.7 °C 34601.5 hPa Calm     95 % 0 mm
22:28 -13.3 °C -13.8 °C 34601.5 hPa Calm     95 % 0 mm
22:33 -13.4 °C -13.8 °C 34601.5 hPa Calm     95 % 0 mm
22:38 -13.4 °C -13.8 °C 34601.5 hPa Calm     95 % 0 mm
22:43 -13.4 °C -13.7 °C 34601.5 hPa Calm     96 % 0 mm
22:48 -13.4 °C -13.8 °C 34601.5 hPa Calm     96 % 0 mm
22:53 -13.5 °C -13.8 °C 34635.4 hPa Calm     96 % 0 mm
22:58 -13.5 °C -13.8 °C 34635.4 hPa Calm     96 % 0 mm
23:03 -13.5 °C -13.8 °C 34635.4 hPa Calm     96 % 0 mm
23:08 -13.6 °C -13.9 °C 34601.5 hPa Calm     96 % 0 mm
23:13 -13.6 °C -13.9 °C 34601.5 hPa Calm     96 % 0 mm
23:18 -13.6 °C -13.9 °C 34601.5 hPa Calm     96 % 0 mm
23:23 -13.6 °C -13.9 °C 34601.5 hPa Calm     96 % 0 mm
23:28 -13.6 °C -13.9 °C 34601.5 hPa Calm     96 % 0 mm
23:33 -13.6 °C -13.9 °C 34601.5 hPa Calm     96 % 0 mm
23:38 -13.6 °C -13.9 °C 34635.4 hPa Calm     96 % 0 mm
23:43 -13.6 °C -13.9 °C 34635.4 hPa Calm     96 % 0 mm
23:48 -13.5 °C -13.8 °C 34635.4 hPa Calm     96 % 0 mm
23:53 -13.4 °C -13.8 °C 34601.5 hPa Calm     96 % 0 mm
23:58 -13.4 °C -13.7 °C 34601.5 hPa Calm     97 % 0 mm
Vremenska postaja Senovo
Podatki zbrani iz Weather Underground - 3 mb

Script developed by  Jim McMurry - jmcmurry@mwt.net Adapted for the template by  Wim van der Kuil - Leuven-Template.eu

Vremenski podatki so objavljeni na:

European Weather Network

WeatherCloud

Weather Underground

AWEKAS

HAMweather, WeatherForYou, PWS Weather

MapView

Geostik

Slovenia weather network

Oprema, ki se uporablja:

Vremenski program
Cumulus

Vremenski server
Asus

Cumulus

Asus